Terminal Aerodrome Forecast
Issued by NWS Northern Indiana

Home | Current Version | Previous Version | Text Only | Print | Product List | Glossary Off
Versions: 1 2 3 4 5 6 7 8 9 10 11 12 13

000
FTUS43 KIWX 231126
TAFFWA
TAF
KFWA 231126Z 2312/2412 21012KT 6SM -SHRA BR BKN006 OVC015
      TEMPO 2312/2313 2SM TSRA BR OVC006CB
     FM231300 22012KT 4SM -SHRA BR VCTS BKN020CB
      TEMPO 2313/2315 1 1/2SM -TSRA BR BKN010CB
     FM231500 24012KT P6SM OVC015
     FM232200 30009KT P6SM OVC050=

USA.gov is the U.S. government's official web portal to all federal, state and local government web resources and services.